createdAt,value
2019-02-17T00:02:30.185Z,48.29
2019-02-17T00:05:01.339Z,48.32
2019-02-17T00:07:33.676Z,48.40
2019-02-17T00:10:05.775Z,48.36
2019-02-17T00:12:36.960Z,48.38
2019-02-17T00:15:08.306Z,48.43
2019-02-17T00:17:39.519Z,48.44
2019-02-17T00:20:10.722Z,48.53
2019-02-17T00:22:41.913Z,48.55
2019-02-17T00:25:13.105Z,48.59
2019-02-17T00:27:44.327Z,48.65
2019-02-17T00:30:15.533Z,48.67
2019-02-17T00:32:46.772Z,48.72
2019-02-17T00:35:17.968Z,48.74
2019-02-17T00:37:49.155Z,48.75
2019-02-17T00:40:20.477Z,48.78
2019-02-17T00:42:51.666Z,48.87
2019-02-17T00:45:22.907Z,48.92
2019-02-17T00:47:54.110Z,49.00
2019-02-17T00:50:25.386Z,49.06
2019-02-17T00:52:56.606Z,49.12
2019-02-17T00:55:27.830Z,49.16
2019-02-17T00:57:59.017Z,49.19
2019-02-17T01:00:30.228Z,49.22
2019-02-17T01:03:01.485Z,49.27
2019-02-17T01:05:32.676Z,49.35
2019-02-17T01:08:03.874Z,49.35
2019-02-17T01:10:35.060Z,49.41
2019-02-17T01:13:06.269Z,49.47
2019-02-17T01:15:37.483Z,49.52
2019-02-17T01:18:08.646Z,49.58
2019-02-17T01:20:39.871Z,49.63
2019-02-17T01:23:11.247Z,49.73
2019-02-17T01:25:42.455Z,49.79
2019-02-17T01:28:13.608Z,49.88
2019-02-17T01:30:44.876Z,49.93
2019-02-17T01:33:16.047Z,50.00
2019-02-17T01:35:47.253Z,50.07
2019-02-17T01:38:18.500Z,50.09
2019-02-17T01:40:49.663Z,50.15
2019-02-17T01:43:20.950Z,50.20
2019-02-17T01:45:52.280Z,50.26
2019-02-17T01:48:24.603Z,50.29
2019-02-17T01:50:55.836Z,50.28
2019-02-17T01:53:27.014Z,50.34
2019-02-17T01:55:58.186Z,50.38
2019-02-17T01:58:29.419Z,50.43
2019-02-17T02:01:00.652Z,50.46
2019-02-17T02:03:31.870Z,50.49
2019-02-17T02:06:03.115Z,50.52
2019-02-17T02:08:34.260Z,50.53
2019-02-17T02:11:05.500Z,50.56
2019-02-17T02:13:36.723Z,50.57
2019-02-17T02:16:07.895Z,50.59
2019-02-17T02:18:39.196Z,50.63
2019-02-17T02:21:10.460Z,50.64
2019-02-17T02:23:41.817Z,50.67
2019-02-17T02:26:14.085Z,50.69
2019-02-17T02:28:45.278Z,50.72
2019-02-17T02:31:16.514Z,50.73
2019-02-17T02:33:47.748Z,50.73
2019-02-17T02:36:18.912Z,50.75
2019-02-17T02:38:50.204Z,50.78
2019-02-17T02:41:21.584Z,50.85
2019-02-17T02:43:52.838Z,50.91
2019-02-17T02:46:24.054Z,50.95
2019-02-17T02:48:55.293Z,50.99
2019-02-17T02:51:26.500Z,51.06
2019-02-17T02:53:57.696Z,51.09
2019-02-17T02:56:28.939Z,51.12
2019-02-17T02:59:00.141Z,51.17
2019-02-17T03:01:31.299Z,51.22
2019-02-17T03:04:02.568Z,51.24
2019-02-17T03:06:42.356Z,51.27
2019-02-17T03:09:14.603Z,51.31
2019-02-17T03:11:45.751Z,51.36
2019-02-17T03:14:16.946Z,51.39
2019-02-17T03:16:48.155Z,51.45
2019-02-17T03:19:19.487Z,51.51
2019-02-17T03:21:50.651Z,51.63
2019-02-17T03:24:21.870Z,51.63
2019-02-17T03:26:53.049Z,51.69
2019-02-17T03:29:24.253Z,51.74
2019-02-17T03:31:55.407Z,51.77
2019-02-17T03:34:26.642Z,51.83
2019-02-17T03:36:57.809Z,51.82
2019-02-17T03:39:28.992Z,51.82
2019-02-17T03:42:00.252Z,51.81
2019-02-17T03:44:31.582Z,51.83
2019-02-17T03:47:02.823Z,51.82
2019-02-17T03:49:35.101Z,51.86
2019-02-17T03:52:06.258Z,51.86
2019-02-17T03:54:37.405Z,51.89
2019-02-17T03:57:08.606Z,51.90
2019-02-17T03:59:39.775Z,51.90
2019-02-17T04:02:11.054Z,51.89
2019-02-17T04:04:42.272Z,51.90
2019-02-17T04:07:13.604Z,51.96
2019-02-17T04:09:44.877Z,51.92
2019-02-17T04:12:16.121Z,51.95
2019-02-17T04:14:47.301Z,51.96
2019-02-17T04:17:18.597Z,51.99
2019-02-17T04:19:49.778Z,52.02
2019-02-17T04:22:20.972Z,52.04
2019-02-17T04:24:52.155Z,52.09
2019-02-17T04:27:23.491Z,52.14
2019-02-17T04:29:54.786Z,52.15
2019-02-17T04:32:25.988Z,52.11
2019-02-17T04:34:57.147Z,52.11
2019-02-17T04:37:28.404Z,52.12
2019-02-17T04:39:59.679Z,52.14
2019-02-17T04:42:31.466Z,52.35
2019-02-17T04:45:02.829Z,52.35
2019-02-17T04:47:35.251Z,52.32
2019-02-17T04:50:06.901Z,52.32
2019-02-17T04:52:38.158Z,52.29
2019-02-17T04:55:09.526Z,52.35
2019-02-17T04:57:40.817Z,52.39
2019-02-17T05:00:11.977Z,52.41
2019-02-17T05:02:43.207Z,52.41
2019-02-17T05:05:14.379Z,52.41
2019-02-17T05:07:45.610Z,52.56
2019-02-17T05:10:16.811Z,52.56
2019-02-17T05:12:48.052Z,52.58
2019-02-17T05:15:19.313Z,52.59
2019-02-17T05:17:50.541Z,52.64
2019-02-17T05:20:21.761Z,52.66
2019-02-17T05:22:52.926Z,52.71
2019-02-17T05:25:24.343Z,52.86
2019-02-17T05:27:55.537Z,52.80
2019-02-17T05:30:26.760Z,52.83
2019-02-17T05:32:57.978Z,52.84
2019-02-17T05:35:29.196Z,52.85
2019-02-17T05:38:00.361Z,52.86
2019-02-17T05:40:31.629Z,52.86
2019-02-17T05:43:02.842Z,52.96
2019-02-17T05:45:34.048Z,53.01
2019-02-17T05:48:05.448Z,53.02
2019-02-17T05:50:36.635Z,53.03
2019-02-17T05:53:07.815Z,53.07
2019-02-17T05:55:39.039Z,53.03
2019-02-17T05:58:10.244Z,53.05
2019-02-17T06:00:41.551Z,53.29
2019-02-17T06:03:12.872Z,53.29
2019-02-17T06:05:44.081Z,53.30
2019-02-17T06:08:15.367Z,53.14
2019-02-17T06:10:46.543Z,53.14
2019-02-17T06:13:17.797Z,53.14
2019-02-17T06:15:49.060Z,53.18
2019-02-17T06:18:20.304Z,53.18
2019-02-17T06:20:51.517Z,53.23
2019-02-17T06:23:22.678Z,53.28
2019-02-17T06:25:53.903Z,53.31
2019-02-17T06:28:25.101Z,53.38
2019-02-17T06:30:56.284Z,53.42
2019-02-17T06:33:27.469Z,53.61
2019-02-17T06:35:58.635Z,53.81
2019-02-17T06:38:29.869Z,53.49
2019-02-17T06:41:01.263Z,53.61
2019-02-17T06:43:32.547Z,53.61
2019-02-17T06:46:04.026Z,53.54
2019-02-17T06:48:35.246Z,53.59
2019-02-17T06:51:06.417Z,53.51
2019-02-17T06:53:37.566Z,53.51
2019-02-17T06:56:36.785Z,53.62
2019-02-17T06:59:07.989Z,53.70
2019-02-17T07:01:39.205Z,53.70
2019-02-17T07:04:11.686Z,53.66
2019-02-17T07:06:46.386Z,53.77
2019-02-17T07:09:17.566Z,53.69
2019-02-17T07:11:48.796Z,53.69
2019-02-17T07:14:20.033Z,53.90
2019-02-17T07:16:51.273Z,53.72
2019-02-17T07:19:22.747Z,53.73
2019-02-17T07:21:53.952Z,53.71
2019-02-17T07:24:25.227Z,53.71
2019-02-17T07:26:56.520Z,53.74
2019-02-17T07:29:27.666Z,53.71
2019-02-17T07:31:58.883Z,53.71
2019-02-17T07:34:30.009Z,53.70
2019-02-17T07:37:01.257Z,53.70
2019-02-17T07:39:32.416Z,53.71
2019-02-17T07:42:03.643Z,53.71
2019-02-17T07:44:34.923Z,53.72
2019-02-17T07:47:06.138Z,53.72
2019-02-17T07:49:37.491Z,53.72
2019-02-17T07:52:08.797Z,53.72
2019-02-17T07:54:40.013Z,53.68
2019-02-17T07:57:11.306Z,53.67
2019-02-17T07:59:42.605Z,53.67
2019-02-17T08:02:13.913Z,53.68
2019-02-17T08:04:45.059Z,53.67
2019-02-17T08:07:16.324Z,53.62
2019-02-17T08:09:47.507Z,53.60
2019-02-17T08:12:18.778Z,53.59
2019-02-17T08:14:50.055Z,53.54
2019-02-17T08:17:21.235Z,53.53
2019-02-17T08:19:52.441Z,53.50
2019-02-17T08:22:23.650Z,53.47
2019-02-17T08:24:54.871Z,53.45
2019-02-17T08:27:26.076Z,53.45
2019-02-17T08:29:57.366Z,53.38
2019-02-17T08:32:28.562Z,53.36
2019-02-17T08:34:59.921Z,53.31
2019-02-17T08:37:31.203Z,53.29
2019-02-17T08:40:02.465Z,53.30
2019-02-17T08:42:33.677Z,53.27
2019-02-17T08:45:05.007Z,53.31
2019-02-17T08:47:36.231Z,53.25
2019-02-17T08:50:08.885Z,53.20
2019-02-17T08:52:40.189Z,53.19
2019-02-17T08:55:11.418Z,53.17
2019-02-17T08:57:42.687Z,53.12
2019-02-17T09:00:14.029Z,53.20
2019-02-17T09:02:45.233Z,53.17
2019-02-17T09:05:16.513Z,53.09
2019-02-17T09:07:48.050Z,53.09
2019-02-17T09:10:19.268Z,53.06
2019-02-17T09:12:50.521Z,53.03
2019-02-17T09:15:21.810Z,53.02
2019-02-17T09:17:54.143Z,53.08
2019-02-17T09:20:25.348Z,53.01
2019-02-17T09:22:57.528Z,53.02
2019-02-17T09:25:28.691Z,52.96
2019-02-17T09:28:00.035Z,52.92
2019-02-17T09:30:31.244Z,52.94
2019-02-17T09:33:02.479Z,52.92
2019-02-17T09:35:33.746Z,52.86
2019-02-17T09:38:05.256Z,52.84
2019-02-17T09:40:36.529Z,52.73
2019-02-17T09:43:07.909Z,52.74
2019-02-17T09:45:39.185Z,52.70
2019-02-17T09:48:10.424Z,52.61
2019-02-17T09:50:41.654Z,52.57
2019-02-17T09:53:12.960Z,52.54
2019-02-17T09:55:44.240Z,52.54
2019-02-17T09:58:15.514Z,52.49
2019-02-17T10:00:46.857Z,52.46
2019-02-17T10:03:18.054Z,52.44
2019-02-17T10:05:49.239Z,52.41
2019-02-17T10:08:21.525Z,52.38
2019-02-17T10:10:52.809Z,52.32
2019-02-17T10:13:24.071Z,52.29
2019-02-17T10:15:55.402Z,52.25
2019-02-17T10:18:26.589Z,52.22
2019-02-17T10:20:57.857Z,52.20
2019-02-17T10:23:29.031Z,52.10
2019-02-17T10:26:00.211Z,52.05
2019-02-17T10:28:41.837Z,52.02
2019-02-17T10:31:04.410Z,51.93
2019-02-17T10:33:35.695Z,51.83
2019-02-17T10:36:06.997Z,51.71
2019-02-17T10:38:38.187Z,51.59
2019-02-17T10:41:09.365Z,51.42
2019-02-17T10:43:40.616Z,51.30
2019-02-17T10:46:11.764Z,51.16
2019-02-17T10:48:42.927Z,51.08
2019-02-17T10:51:14.168Z,50.98
2019-02-17T10:53:45.443Z,50.91
2019-02-17T10:56:16.586Z,50.82
2019-02-17T10:58:47.990Z,50.76
2019-02-17T11:01:19.236Z,50.68
2019-02-17T11:04:08.985Z,50.56
2019-02-17T11:06:40.177Z,50.45
2019-02-17T11:09:22.838Z,50.33
2019-02-17T11:11:54.151Z,50.21
2019-02-17T11:14:25.381Z,50.12
2019-02-17T11:16:56.625Z,50.04
2019-02-17T11:19:27.750Z,49.93
2019-02-17T11:21:58.999Z,49.83
2019-02-17T11:24:30.207Z,49.76
2019-02-17T11:27:01.482Z,49.66
2019-02-17T11:29:32.844Z,49.55
2019-02-17T11:32:04.011Z,49.49
2019-02-17T11:34:35.204Z,49.43
2019-02-17T11:37:06.336Z,49.36
2019-02-17T11:39:37.640Z,49.24
2019-02-17T11:42:08.875Z,49.13
2019-02-17T11:44:40.077Z,49.07
2019-02-17T11:47:11.421Z,48.97
2019-02-17T11:49:42.692Z,48.82
2019-02-17T11:52:14.155Z,48.67
2019-02-17T11:54:47.558Z,48.64
2019-02-17T11:57:18.632Z,48.60
2019-02-17T11:59:49.901Z,48.56
2019-02-17T12:02:24.957Z,48.49
2019-02-17T12:04:54.145Z,48.48
2019-02-17T12:07:25.431Z,48.41
2019-02-17T12:09:56.657Z,48.33
2019-02-17T12:12:27.822Z,48.31
2019-02-17T12:14:59.034Z,48.45
2019-02-17T12:17:30.192Z,48.35
2019-02-17T12:20:19.510Z,48.32
2019-02-17T12:22:56.355Z,48.26
2019-02-17T12:25:33.639Z,48.18
2019-02-17T12:28:09.594Z,48.15
2019-02-17T12:30:42.934Z,48.00
2019-02-17T12:33:19.122Z,47.95
2019-02-17T12:35:47.114Z,47.84
2019-02-17T12:38:19.637Z,47.79
2019-02-17T12:40:50.779Z,47.65
2019-02-17T12:43:22.154Z,47.58
2019-02-17T12:45:53.377Z,47.54
2019-02-17T12:48:24.486Z,47.40
2019-02-17T12:50:55.701Z,47.26
2019-02-17T12:53:26.834Z,47.13
2019-02-17T12:55:58.058Z,46.93
2019-02-17T12:58:30.191Z,46.75
2019-02-17T13:01:01.719Z,46.70
2019-02-17T13:03:32.970Z,46.60
2019-02-17T13:06:04.255Z,46.48
2019-02-17T13:08:35.609Z,46.31
2019-02-17T13:11:06.812Z,46.33
2019-02-17T13:13:38.110Z,46.15
2019-02-17T13:16:09.313Z,45.84
2019-02-17T13:18:40.593Z,45.69
2019-02-17T13:21:11.798Z,45.41
2019-02-17T13:23:43.029Z,45.02
2019-02-17T13:26:14.213Z,44.58
2019-02-17T13:28:45.375Z,44.07
2019-02-17T13:31:16.584Z,43.55
2019-02-17T13:33:47.760Z,43.07
2019-02-17T13:36:18.952Z,42.52
2019-02-17T13:38:50.185Z,42.05
2019-02-17T13:41:21.484Z,41.40
2019-02-17T13:43:52.860Z,40.94
2019-02-17T13:46:24.148Z,40.41
2019-02-17T13:48:55.531Z,39.97
2019-02-17T13:51:26.768Z,39.48
2019-02-17T13:53:58.066Z,39.20
2019-02-17T13:56:29.253Z,39.01
2019-02-17T13:59:00.555Z,38.86
2019-02-17T14:01:31.781Z,38.57
2019-02-17T14:04:03.140Z,38.34
2019-02-17T14:06:34.597Z,38.04
2019-02-17T14:09:06.797Z,37.71
2019-02-17T14:11:37.981Z,37.47
2019-02-17T14:14:09.314Z,37.22
2019-02-17T14:16:41.819Z,36.91
2019-02-17T14:19:13.128Z,36.61
2019-02-17T14:21:44.359Z,36.26
2019-02-17T14:24:15.572Z,36.02
2019-02-17T14:26:47.023Z,35.74
2019-02-17T14:29:18.187Z,35.56
2019-02-17T14:31:49.537Z,35.27
2019-02-17T14:34:20.682Z,35.00
2019-02-17T14:36:51.877Z,34.81
2019-02-17T14:39:23.111Z,34.60
2019-02-17T14:41:54.375Z,34.35
2019-02-17T14:44:25.539Z,34.12
2019-02-17T14:46:56.929Z,33.87
2019-02-17T14:49:28.235Z,33.75
2019-02-17T14:51:59.396Z,33.69
2019-02-17T14:54:30.602Z,33.56
2019-02-17T14:57:01.808Z,33.56
2019-02-17T14:59:33.009Z,33.55
2019-02-17T15:02:04.217Z,33.57
2019-02-17T15:04:35.486Z,33.54
2019-02-17T15:07:06.674Z,33.58
2019-02-17T15:09:37.824Z,33.50
2019-02-17T15:12:09.220Z,33.49
2019-02-17T15:14:40.392Z,33.43
2019-02-17T15:17:11.570Z,33.43
2019-02-17T15:19:42.805Z,33.46
2019-02-17T15:22:14.066Z,33.55
2019-02-17T15:24:45.263Z,33.66
2019-02-17T15:27:16.489Z,33.77
2019-02-17T15:29:47.623Z,34.00
2019-02-17T15:32:18.898Z,34.11
2019-02-17T15:34:50.144Z,34.25
2019-02-17T15:37:21.967Z,34.39
2019-02-17T15:39:53.282Z,34.52
2019-02-17T15:42:24.475Z,34.67
2019-02-17T15:44:55.633Z,34.79
2019-02-17T15:47:26.932Z,34.93
2019-02-17T15:49:58.186Z,35.05
2019-02-17T15:52:30.158Z,35.24
2019-02-17T15:55:01.419Z,35.37
2019-02-17T15:57:32.716Z,35.54
2019-02-17T16:00:04.062Z,35.73
2019-02-17T16:02:35.580Z,35.94
2019-02-17T16:05:07.254Z,36.15
2019-02-17T16:07:38.481Z,36.37
2019-02-17T16:10:11.211Z,36.57
2019-02-17T16:12:42.442Z,36.75
2019-02-17T16:15:15.357Z,36.93
2019-02-17T16:17:46.608Z,37.13
2019-02-17T16:20:17.778Z,37.30
2019-02-17T16:22:49.024Z,37.48
2019-02-17T16:25:20.241Z,37.63
2019-02-17T16:27:51.433Z,37.79
2019-02-17T16:30:22.730Z,37.95
2019-02-17T16:32:53.980Z,38.08
2019-02-17T16:35:25.144Z,38.21
2019-02-17T16:37:57.348Z,38.36
2019-02-17T16:40:28.685Z,38.52
2019-02-17T16:43:00.055Z,38.64
2019-02-17T16:45:31.325Z,38.79
2019-02-17T16:48:02.717Z,38.96
2019-02-17T16:50:34.813Z,39.10
2019-02-17T16:53:06.124Z,39.27
2019-02-17T16:55:37.362Z,39.40
2019-02-17T16:58:08.646Z,39.51
2019-02-17T17:00:39.851Z,39.66
2019-02-17T17:03:11.222Z,39.83
2019-02-17T17:05:42.450Z,40.02
2019-02-17T17:08:13.819Z,40.19
2019-02-17T17:10:45.092Z,40.35
2019-02-17T17:13:16.422Z,40.54
2019-02-17T17:15:47.646Z,40.69
2019-02-17T17:18:18.852Z,40.84
2019-02-17T17:20:50.031Z,40.98
2019-02-17T17:23:21.259Z,41.13
2019-02-17T17:25:52.532Z,41.26
2019-02-17T17:28:25.863Z,41.43
2019-02-17T17:30:56.748Z,41.63
2019-02-17T17:33:28.004Z,41.81
2019-02-17T17:35:59.236Z,41.95
2019-02-17T17:38:30.532Z,42.14
2019-02-17T17:41:01.817Z,42.29
2019-02-17T17:43:33.344Z,42.46
2019-02-17T17:46:04.610Z,42.61
2019-02-17T17:48:35.960Z,42.72
2019-02-17T17:51:07.205Z,42.84
2019-02-17T17:53:38.458Z,42.94
2019-02-17T17:56:09.755Z,43.06
2019-02-17T17:58:41.003Z,43.18
2019-02-17T18:01:12.313Z,43.32
2019-02-17T18:03:43.697Z,43.46
2019-02-17T18:06:14.980Z,43.55
2019-02-17T18:08:46.652Z,43.67
2019-02-17T18:11:17.992Z,43.79
2019-02-17T18:13:49.191Z,43.89
2019-02-17T18:16:20.487Z,44.01
2019-02-17T18:18:51.862Z,44.11
2019-02-17T18:21:23.274Z,44.23
2019-02-17T18:23:54.581Z,44.37
2019-02-17T18:26:25.944Z,44.50
2019-02-17T18:28:57.323Z,44.62
2019-02-17T18:31:29.121Z,44.73
2019-02-17T18:34:00.374Z,44.85
2019-02-17T18:36:31.547Z,44.98
2019-02-17T18:39:03.168Z,45.13
2019-02-17T18:41:36.434Z,45.27
2019-02-17T18:44:07.879Z,45.39
2019-02-17T18:46:39.143Z,45.48
2019-02-17T18:49:10.419Z,45.57
2019-02-17T18:51:41.904Z,45.67
2019-02-17T18:54:13.062Z,45.76
2019-02-17T18:56:44.363Z,45.85
2019-02-17T18:59:15.765Z,45.95
2019-02-17T19:01:47.130Z,46.05
2019-02-17T19:04:19.354Z,46.17
2019-02-17T19:06:51.532Z,46.26
2019-02-17T19:09:22.903Z,46.33
2019-02-17T19:11:54.355Z,46.42
2019-02-17T19:14:25.608Z,46.52
2019-02-17T19:16:56.962Z,46.59
2019-02-17T19:19:29.282Z,46.71
2019-02-17T19:22:00.837Z,46.76
2019-02-17T19:24:32.409Z,46.84
2019-02-17T19:27:03.696Z,46.93
2019-02-17T19:29:34.947Z,47.01
2019-02-17T19:32:06.209Z,47.08
2019-02-17T19:34:37.437Z,47.16
2019-02-17T19:37:09.114Z,47.23
2019-02-17T19:39:40.345Z,47.28
2019-02-17T19:42:11.726Z,47.37
2019-02-17T19:44:43.101Z,47.39
2019-02-17T19:47:15.525Z,47.44
2019-02-17T19:49:46.936Z,47.48
2019-02-17T19:52:19.927Z,47.55
2019-02-17T19:54:51.848Z,47.63
2019-02-17T19:57:23.056Z,47.73
2019-02-17T19:59:54.963Z,47.82
2019-02-17T20:02:43.690Z,47.96
2019-02-17T20:05:17.516Z,48.04
2019-02-17T20:07:52.275Z,48.16
2019-02-17T20:10:23.793Z,48.18
2019-02-17T20:12:55.292Z,48.25
2019-02-17T20:15:29.450Z,48.28
2019-02-17T20:18:00.740Z,48.34
2019-02-17T20:20:32.494Z,48.36
2019-02-17T20:23:03.702Z,48.40
2019-02-17T20:25:35.042Z,48.46
2019-02-17T20:28:06.795Z,48.54
2019-02-17T20:30:38.037Z,48.59
2019-02-17T20:33:09.236Z,48.65
2019-02-17T20:35:42.113Z,48.73
2019-02-17T20:38:13.523Z,48.76
2019-02-17T20:40:44.818Z,48.81
2019-02-17T20:43:16.780Z,48.87
2019-02-17T20:45:48.193Z,48.92
2019-02-17T20:48:20.512Z,48.96
2019-02-17T20:50:51.790Z,49.01
2019-02-17T20:53:23.133Z,49.05
2019-02-17T20:55:54.477Z,49.13
2019-02-17T20:58:25.650Z,49.19
2019-02-17T21:00:57.054Z,49.23
2019-02-17T21:03:28.524Z,49.30
2019-02-17T21:05:59.912Z,49.32
2019-02-17T21:08:31.244Z,49.40
2019-02-17T21:11:02.793Z,49.44
2019-02-17T21:13:34.301Z,49.47
2019-02-17T21:16:06.332Z,49.53
2019-02-17T21:18:37.711Z,49.60
2019-02-17T21:21:08.930Z,49.66
2019-02-17T21:23:40.156Z,49.71
2019-02-17T21:26:11.476Z,49.76
2019-02-17T21:28:42.922Z,49.81
2019-02-17T21:31:14.121Z,49.85
2019-02-17T21:33:45.460Z,49.90
2019-02-17T21:36:23.240Z,49.96
2019-02-17T21:38:50.138Z,49.98
2019-02-17T21:41:21.394Z,50.05
2019-02-17T21:43:52.619Z,50.07
2019-02-17T21:46:24.013Z,50.12
2019-02-17T21:48:55.257Z,50.18
2019-02-17T21:51:26.489Z,50.23
2019-02-17T21:53:57.765Z,50.23
2019-02-17T21:56:29.011Z,50.25
2019-02-17T21:59:00.270Z,50.30
2019-02-17T22:01:31.568Z,50.31
2019-02-17T22:04:02.805Z,50.37
2019-02-17T22:06:34.167Z,50.40
2019-02-17T22:09:06.210Z,50.45
2019-02-17T22:11:37.444Z,50.43
2019-02-17T22:14:08.864Z,50.46
2019-02-17T22:16:40.093Z,50.46
2019-02-17T22:19:11.277Z,50.50
2019-02-17T22:21:42.545Z,50.54
2019-02-17T22:24:13.795Z,50.56
2019-02-17T22:26:44.930Z,50.62
2019-02-17T22:29:16.122Z,50.64
2019-02-17T22:31:47.420Z,50.66
2019-02-17T22:34:18.761Z,50.71
2019-02-17T22:36:50.062Z,50.76
2019-02-17T22:39:21.307Z,50.82
2019-02-17T22:41:52.545Z,50.87
2019-02-17T22:44:23.852Z,50.93
2019-02-17T22:46:55.029Z,51.02
2019-02-17T22:49:26.214Z,51.11
2019-02-17T22:51:57.393Z,51.20
2019-02-17T22:54:28.574Z,51.27
2019-02-17T22:56:59.949Z,51.37
2019-02-17T22:59:32.178Z,51.43
2019-02-17T23:02:04.827Z,51.50
2019-02-17T23:04:36.075Z,51.58
2019-02-17T23:07:07.434Z,51.64
2019-02-17T23:09:38.858Z,51.66
2019-02-17T23:12:10.101Z,51.69
2019-02-17T23:14:41.340Z,51.69
2019-02-17T23:17:12.542Z,51.73
2019-02-17T23:19:43.771Z,51.74
2019-02-17T23:22:14.978Z,51.77
2019-02-17T23:24:46.509Z,51.85
2019-02-17T23:27:17.779Z,51.87
2019-02-17T23:29:48.979Z,51.90
2019-02-17T23:32:20.174Z,51.97
2019-02-17T23:34:51.368Z,51.96
2019-02-17T23:37:22.563Z,51.97
2019-02-17T23:39:53.714Z,51.97
2019-02-17T23:42:25.026Z,52.00
2019-02-17T23:44:56.202Z,52.00
2019-02-17T23:47:27.366Z,52.04
2019-02-17T23:49:58.664Z,52.07
2019-02-17T23:52:30.019Z,52.14
2019-02-17T23:55:01.301Z,52.16
2019-02-17T23:57:32.606Z,52.20
